createdAt,value
2023-05-21T00:02:22.417Z,59.53
2023-05-21T00:04:51.392Z,58.97
2023-05-21T00:07:20.477Z,59.24
2023-05-21T00:09:48.595Z,59.94
2023-05-21T00:12:16.555Z,59.34
2023-05-21T00:14:46.062Z,59.76
2023-05-21T00:17:13.998Z,59.86
2023-05-21T00:19:41.936Z,59.23
2023-05-21T00:22:09.876Z,59.70
2023-05-21T00:24:37.738Z,59.46
2023-05-21T00:27:05.948Z,60.21
2023-05-21T00:29:33.851Z,60.13
2023-05-21T00:32:03.177Z,60.37
2023-05-21T00:34:31.139Z,60.48
2023-05-21T00:36:58.996Z,60.71
2023-05-21T00:39:26.878Z,60.91
2023-05-21T00:41:56.863Z,61.03
2023-05-21T00:44:25.308Z,61.44
2023-05-21T00:46:55.078Z,61.69
2023-05-21T00:49:25.928Z,61.71
2023-05-21T00:51:54.859Z,60.56
2023-05-21T00:54:24.216Z,61.40
2023-05-21T00:56:53.096Z,60.88
2023-05-21T00:59:21.026Z,60.92
2023-05-21T01:01:56.241Z,61.18
2023-05-21T01:04:25.752Z,61.12
2023-05-21T01:06:56.228Z,61.09
2023-05-21T01:09:24.308Z,60.22
2023-05-21T01:11:53.674Z,60.58
2023-05-21T01:14:23.920Z,61.06
2023-05-21T01:16:53.794Z,59.60
2023-05-21T01:19:26.232Z,60.52
2023-05-21T01:22:06.018Z,60.75
2023-05-21T01:24:35.628Z,60.77
2023-05-21T01:27:07.794Z,61.65
2023-05-21T01:29:35.869Z,62.42
2023-05-21T01:32:16.945Z,61.52
2023-05-21T01:34:56.841Z,61.68
2023-05-21T01:37:32.773Z,62.07
2023-05-21T01:40:12.671Z,62.49
2023-05-21T01:42:45.866Z,62.29
2023-05-21T01:45:16.880Z,62.08
2023-05-21T01:47:50.377Z,62.52
2023-05-21T01:50:23.255Z,63.05
2023-05-21T01:52:52.865Z,63.12
2023-05-21T01:55:24.821Z,62.63
2023-05-21T01:57:53.823Z,62.61
2023-05-21T02:00:23.715Z,63.21
2023-05-21T02:02:51.718Z,63.63
2023-05-21T02:05:19.766Z,63.48
2023-05-21T02:07:49.821Z,63.92
2023-05-21T02:10:17.753Z,63.71
2023-05-21T02:12:47.581Z,63.90
2023-05-21T02:15:17.862Z,64.42
2023-05-21T02:17:46.530Z,63.40
2023-05-21T02:20:15.594Z,63.37
2023-05-21T02:22:45.848Z,63.28
2023-05-21T02:25:15.854Z,63.22
2023-05-21T02:27:46.864Z,63.01
2023-05-21T02:30:16.875Z,63.89
2023-05-21T02:32:45.546Z,63.47
2023-05-21T02:35:14.519Z,63.88
2023-05-21T02:37:44.110Z,63.77
2023-05-21T02:40:13.528Z,64.06
2023-05-21T02:42:42.226Z,63.55
2023-05-21T02:45:13.566Z,64.29
2023-05-21T02:47:41.738Z,65.86
2023-05-21T02:50:10.573Z,66.88
2023-05-21T02:52:38.401Z,67.83
2023-05-21T02:55:07.799Z,67.19
2023-05-21T02:57:35.735Z,67.82
2023-05-21T03:00:05.956Z,68.24
2023-05-21T03:02:35.439Z,69.07
2023-05-21T03:05:03.521Z,69.00
2023-05-21T03:07:31.627Z,69.27
2023-05-21T03:09:59.456Z,70.22
2023-05-21T03:12:27.385Z,69.59
2023-05-21T03:14:56.378Z,70.65
2023-05-21T03:17:24.377Z,70.41
2023-05-21T03:19:54.770Z,70.60
2023-05-21T03:22:22.694Z,70.15
2023-05-21T03:24:50.584Z,70.33
2023-05-21T03:27:19.712Z,70.54
2023-05-21T03:29:47.579Z,70.84
2023-05-21T03:32:15.709Z,70.45
2023-05-21T03:34:44.664Z,70.92
2023-05-21T03:37:13.934Z,71.48
2023-05-21T03:39:41.867Z,71.34
2023-05-21T03:42:09.643Z,72.05
2023-05-21T03:44:37.497Z,71.60
2023-05-21T03:47:05.683Z,71.42
2023-05-21T03:49:33.496Z,71.24
2023-05-21T03:52:01.416Z,70.89
2023-05-21T03:54:31.347Z,71.11
2023-05-21T03:56:59.937Z,71.21
2023-05-21T03:59:27.853Z,71.26
2023-05-21T04:01:55.934Z,71.83
2023-05-21T04:04:24.103Z,70.29
2023-05-21T04:06:54.726Z,70.98
2023-05-21T04:09:22.647Z,71.41
2023-05-21T04:11:51.913Z,71.29
2023-05-21T04:14:19.797Z,71.28
2023-05-21T04:16:49.194Z,71.06
2023-05-21T04:19:17.699Z,71.33
2023-05-21T04:21:46.168Z,70.90
2023-05-21T04:24:14.126Z,70.54
2023-05-21T04:26:42.433Z,71.00
2023-05-21T04:29:11.693Z,70.28
2023-05-21T04:31:39.712Z,70.70
2023-05-21T04:34:07.641Z,71.21
2023-05-21T04:36:35.439Z,70.07
2023-05-21T04:39:06.273Z,70.41
2023-05-21T04:41:34.610Z,70.73
2023-05-21T04:44:02.687Z,70.74
2023-05-21T04:46:34.836Z,70.61
2023-05-21T04:49:03.889Z,70.24
2023-05-21T04:51:32.632Z,70.48
2023-05-21T04:54:00.779Z,70.17
2023-05-21T04:56:29.612Z,69.92
2023-05-21T04:58:59.834Z,69.53
2023-05-21T05:01:29.352Z,70.27
2023-05-21T05:03:58.790Z,69.74
2023-05-21T05:06:27.492Z,69.26
2023-05-21T05:08:56.411Z,68.49
2023-05-21T05:11:24.807Z,68.75
2023-05-21T05:13:53.490Z,69.45
2023-05-21T05:16:25.474Z,69.30
2023-05-21T05:18:53.976Z,68.84
2023-05-21T05:21:24.522Z,68.50
2023-05-21T05:23:52.429Z,69.09
2023-05-21T05:26:21.451Z,68.98
2023-05-21T05:28:49.338Z,69.36
2023-05-21T05:31:18.616Z,68.69
2023-05-21T05:33:46.772Z,68.42
2023-05-21T05:36:14.613Z,68.77
2023-05-21T05:38:44.031Z,67.85
2023-05-21T05:41:11.957Z,67.81
2023-05-21T05:43:39.764Z,67.38
2023-05-21T05:46:07.763Z,68.02
2023-05-21T05:48:35.768Z,67.93
2023-05-21T05:51:03.679Z,67.16
2023-05-21T05:53:32.388Z,66.88
2023-05-21T05:56:01.625Z,67.93
2023-05-21T05:58:31.118Z,67.52
2023-05-21T06:00:58.953Z,67.13
2023-05-21T06:03:28.130Z,67.22
2023-05-21T06:05:56.312Z,67.16
2023-05-21T06:08:24.730Z,66.93
2023-05-21T06:10:52.597Z,67.26
2023-05-21T06:13:25.398Z,67.88
2023-05-21T06:15:54.649Z,67.51
2023-05-21T06:18:24.176Z,67.14
2023-05-21T06:20:52.062Z,66.67
2023-05-21T06:23:20.265Z,67.16
2023-05-21T06:25:48.531Z,67.18
2023-05-21T06:28:17.754Z,66.89
2023-05-21T06:30:47.267Z,66.58
2023-05-21T06:33:15.262Z,66.89
2023-05-21T06:35:43.227Z,66.10
2023-05-21T06:38:11.251Z,65.62
2023-05-21T06:40:48.492Z,64.72
2023-05-21T06:43:16.531Z,64.79
2023-05-21T06:45:44.366Z,64.84
2023-05-21T06:48:15.930Z,64.43
2023-05-21T06:50:44.413Z,63.59
2023-05-21T06:53:18.677Z,63.07
2023-05-21T06:55:57.788Z,63.17
2023-05-21T06:58:25.929Z,62.58
2023-05-21T07:00:53.998Z,61.94
2023-05-21T07:03:23.351Z,61.68
2023-05-21T07:05:51.265Z,60.46
2023-05-21T07:08:20.887Z,60.30
2023-05-21T07:10:49.927Z,59.33
2023-05-21T07:13:17.863Z,58.18
2023-05-21T07:15:45.713Z,58.43
2023-05-21T07:18:13.682Z,57.83
2023-05-21T07:20:42.955Z,56.43
2023-05-21T07:23:11.020Z,56.69
2023-05-21T07:25:39.291Z,56.88
2023-05-21T07:28:07.210Z,56.13
2023-05-21T07:30:35.048Z,55.53
2023-05-21T07:33:02.921Z,54.62
2023-05-21T07:35:31.123Z,54.79
2023-05-21T07:38:00.623Z,54.35
2023-05-21T07:40:28.410Z,54.38
2023-05-21T07:42:56.430Z,53.30
2023-05-21T07:45:24.277Z,53.48
2023-05-21T07:47:52.157Z,54.36
2023-05-21T07:50:22.360Z,54.26
2023-05-21T07:52:50.338Z,53.83
2023-05-21T07:55:19.624Z,53.59
2023-05-21T07:57:47.809Z,54.26
2023-05-21T08:00:16.794Z,54.55
2023-05-21T08:02:44.965Z,55.34
2023-05-21T08:05:16.342Z,55.18
2023-05-21T08:07:44.333Z,55.60
2023-05-21T08:10:12.345Z,55.48
2023-05-21T08:12:41.983Z,56.20
2023-05-21T08:15:10.273Z,56.17
2023-05-21T08:17:38.588Z,54.75
2023-05-21T08:20:08.468Z,53.99
2023-05-21T08:22:36.320Z,53.64
2023-05-21T08:25:07.192Z,54.22
2023-05-21T08:27:35.172Z,53.28
2023-05-21T08:30:06.825Z,54.14
2023-05-21T08:32:36.696Z,54.26
2023-05-21T08:35:05.027Z,54.53
2023-05-21T08:37:33.682Z,54.39
2023-05-21T08:40:01.614Z,54.24
2023-05-21T08:42:43.706Z,53.86
2023-05-21T08:45:14.944Z,53.54
2023-05-21T08:47:44.988Z,52.32
2023-05-21T08:50:15.572Z,53.17
2023-05-21T08:52:45.091Z,52.70
2023-05-21T08:55:13.626Z,51.62
2023-05-21T08:57:47.820Z,51.20
2023-05-21T09:00:21.390Z,51.07
2023-05-21T09:03:07.816Z,49.42
2023-05-21T09:05:36.624Z,49.39
2023-05-21T09:08:13.118Z,49.12
2023-05-21T09:10:49.221Z,48.93
2023-05-21T09:13:19.438Z,47.52
2023-05-21T09:15:51.460Z,46.08
2023-05-21T09:18:19.732Z,46.80
2023-05-21T09:20:47.596Z,46.71
2023-05-21T09:23:19.237Z,46.53
2023-05-21T09:25:48.843Z,44.94
2023-05-21T09:28:18.761Z,44.24
2023-05-21T09:30:56.921Z,44.23
2023-05-21T09:33:58.535Z,43.89
2023-05-21T09:36:26.582Z,44.13
2023-05-21T09:38:59.795Z,45.65
2023-05-21T09:41:33.728Z,43.91
2023-05-21T09:44:05.065Z,44.17
2023-05-21T09:46:41.003Z,43.04
2023-05-21T09:49:24.050Z,43.94
2023-05-21T09:51:51.924Z,42.86
2023-05-21T09:54:19.836Z,42.33
2023-05-21T09:56:47.874Z,43.56
2023-05-21T09:59:15.740Z,43.23
2023-05-21T10:01:45.960Z,42.34
2023-05-21T10:04:14.881Z,42.51
2023-05-21T10:06:45.238Z,42.64
2023-05-21T10:09:15.812Z,42.49
2023-05-21T10:11:46.527Z,42.56
2023-05-21T10:14:20.781Z,42.94
2023-05-21T10:16:51.351Z,42.65
2023-05-21T10:19:21.683Z,42.43
2023-05-21T10:21:52.586Z,41.72
2023-05-21T10:24:21.921Z,41.18
2023-05-21T10:26:50.950Z,40.33
2023-05-21T10:29:21.939Z,41.21
2023-05-21T10:31:53.756Z,42.99
2023-05-21T10:34:24.608Z,42.51
2023-05-21T10:36:57.163Z,44.24
2023-05-21T10:39:26.581Z,43.05
2023-05-21T10:42:18.362Z,42.54
2023-05-21T10:45:09.423Z,43.22
2023-05-21T10:48:06.506Z,42.14
2023-05-21T10:51:03.910Z,42.42
2023-05-21T10:53:57.373Z,41.75
2023-05-21T10:56:34.299Z,42.37
2023-05-21T10:59:21.720Z,41.61
2023-05-21T11:01:52.907Z,42.05
2023-05-21T11:04:27.662Z,41.18
2023-05-21T11:06:56.353Z,41.81
2023-05-21T11:09:24.438Z,41.62
2023-05-21T11:11:54.662Z,41.11
2023-05-21T11:14:33.080Z,39.96
2023-05-21T11:17:04.764Z,40.80
2023-05-21T11:19:40.538Z,41.34
2023-05-21T11:22:09.878Z,40.69
2023-05-21T11:24:42.606Z,40.65
2023-05-21T11:27:10.733Z,41.35
2023-05-21T11:29:45.289Z,41.37
2023-05-21T11:32:21.968Z,42.51
2023-05-21T11:34:51.869Z,41.10
2023-05-21T11:37:33.134Z,40.14
2023-05-21T11:40:29.439Z,39.66
2023-05-21T11:42:58.365Z,39.91
2023-05-21T11:45:31.872Z,40.28
2023-05-21T11:48:01.125Z,39.90
2023-05-21T11:50:33.754Z,40.50
2023-05-21T11:53:01.922Z,39.42
2023-05-21T11:55:30.287Z,40.28
2023-05-21T11:58:00.793Z,41.01
2023-05-21T12:00:28.653Z,41.68
2023-05-21T12:02:57.246Z,40.64
2023-05-21T12:05:27.364Z,40.97
2023-05-21T12:07:56.789Z,41.24
2023-05-21T12:10:31.116Z,40.52
2023-05-21T12:12:59.261Z,41.10
2023-05-21T12:15:28.071Z,40.10
2023-05-21T12:17:57.902Z,42.81
2023-05-21T12:20:28.615Z,40.26
2023-05-21T12:23:00.540Z,39.66
2023-05-21T12:25:30.461Z,39.42
2023-05-21T12:28:01.332Z,39.36
2023-05-21T12:30:31.179Z,38.66
2023-05-21T12:33:01.985Z,37.92
2023-05-21T12:35:32.108Z,38.55
2023-05-21T12:38:04.029Z,39.17
2023-05-21T12:40:39.944Z,38.49
2023-05-21T12:43:08.926Z,39.70
2023-05-21T12:45:39.371Z,38.23
2023-05-21T12:48:08.377Z,37.95
2023-05-21T12:50:41.662Z,38.00
2023-05-21T12:53:12.657Z,38.31
2023-05-21T12:55:41.120Z,37.00
2023-05-21T12:58:09.434Z,37.84
2023-05-21T13:00:38.354Z,39.83
2023-05-21T13:03:07.401Z,39.33
2023-05-21T13:05:36.139Z,40.40
2023-05-21T13:09:23.233Z,38.32
2023-05-21T13:11:52.385Z,38.78
2023-05-21T13:14:21.117Z,39.45
2023-05-21T13:16:49.200Z,38.74
2023-05-21T13:19:17.790Z,39.73
2023-05-21T13:21:45.701Z,40.01
2023-05-21T13:24:13.615Z,40.23
2023-05-21T13:26:41.752Z,40.38
2023-05-21T13:29:15.509Z,41.16
2023-05-21T13:31:43.789Z,43.36
2023-05-21T13:34:12.905Z,41.98
2023-05-21T13:36:41.899Z,42.72
2023-05-21T13:39:10.199Z,42.93
2023-05-21T13:41:38.195Z,43.32
2023-05-21T13:44:06.912Z,44.32
2023-05-21T13:46:39.538Z,44.08
2023-05-21T13:49:10.544Z,44.31
2023-05-21T13:51:39.481Z,43.92
2023-05-21T13:54:09.764Z,43.77
2023-05-21T13:56:37.620Z,43.87
2023-05-21T13:59:05.795Z,44.14
2023-05-21T14:01:33.818Z,43.38
2023-05-21T14:04:07.124Z,42.99
2023-05-21T14:06:36.098Z,43.53
2023-05-21T14:09:06.210Z,43.76
2023-05-21T14:11:35.027Z,45.49
2023-05-21T14:14:03.915Z,45.09
2023-05-21T14:16:33.040Z,45.05
2023-05-21T14:19:01.093Z,45.71
2023-05-21T14:21:31.637Z,44.97
2023-05-21T14:23:59.546Z,45.05
2023-05-21T14:26:27.727Z,45.14
2023-05-21T14:28:55.772Z,44.20
2023-05-21T14:31:25.069Z,44.55
2023-05-21T14:33:53.001Z,44.55
2023-05-21T14:36:21.852Z,44.73
2023-05-21T14:38:51.091Z,43.17
2023-05-21T14:41:20.196Z,42.57
2023-05-21T14:43:48.604Z,44.33
2023-05-21T14:46:16.682Z,43.48
2023-05-21T14:48:46.626Z,43.18
2023-05-21T14:51:14.778Z,42.22
2023-05-21T14:53:42.674Z,41.59
2023-05-21T14:56:11.929Z,42.46
2023-05-21T14:58:39.913Z,42.74
2023-05-21T15:01:07.925Z,43.14
2023-05-21T15:03:35.905Z,43.12
2023-05-21T15:06:03.973Z,43.83
2023-05-21T15:08:32.090Z,42.50
2023-05-21T15:10:59.925Z,42.65
2023-05-21T15:13:29.366Z,42.12
2023-05-21T15:15:57.594Z,43.15
2023-05-21T15:18:25.672Z,41.96
2023-05-21T15:20:53.636Z,43.36
2023-05-21T15:23:21.791Z,43.39
2023-05-21T15:25:49.714Z,43.54
2023-05-21T15:28:17.790Z,43.26
2023-05-21T15:30:47.161Z,44.69
2023-05-21T15:33:15.146Z,43.63
2023-05-21T15:35:43.283Z,43.79
2023-05-21T15:38:11.442Z,43.20
2023-05-21T15:40:42.479Z,43.15
2023-05-21T15:43:10.363Z,43.51
2023-05-21T15:45:39.154Z,43.75
2023-05-21T15:48:08.977Z,44.19
2023-05-21T15:50:38.119Z,44.16
2023-05-21T15:53:06.251Z,43.09
2023-05-21T15:55:34.241Z,44.14
2023-05-21T15:58:03.828Z,44.22
2023-05-21T16:00:31.760Z,44.05
2023-05-21T16:02:59.726Z,44.60
2023-05-21T16:05:29.426Z,44.88
2023-05-21T16:07:57.253Z,44.09
2023-05-21T16:10:25.151Z,44.11
2023-05-21T16:12:52.996Z,44.97
2023-05-21T16:15:21.484Z,45.86
2023-05-21T16:17:49.491Z,45.19
2023-05-21T16:20:18.777Z,44.78
2023-05-21T16:22:47.752Z,44.93
2023-05-21T16:25:15.828Z,44.74
2023-05-21T16:27:43.667Z,45.36
2023-05-21T16:30:14.247Z,44.82
2023-05-21T16:32:42.287Z,44.25
2023-05-21T16:35:10.293Z,44.15
2023-05-21T16:37:38.447Z,44.75
2023-05-21T16:40:09.714Z,44.54
2023-05-21T16:42:37.614Z,44.79
2023-05-21T16:45:06.497Z,45.29
2023-05-21T16:47:34.387Z,45.17
2023-05-21T16:50:02.851Z,44.17
2023-05-21T16:52:30.677Z,44.83
2023-05-21T16:54:58.549Z,44.03
2023-05-21T16:57:27.764Z,45.06
2023-05-21T16:59:55.575Z,45.59
2023-05-21T17:02:24.250Z,45.35
2023-05-21T17:04:52.268Z,45.04
2023-05-21T17:07:20.822Z,44.70
2023-05-21T17:09:48.767Z,44.93
2023-05-21T17:12:16.741Z,45.01
2023-05-21T17:14:45.936Z,45.79
2023-05-21T17:17:13.642Z,45.19
2023-05-21T17:19:43.187Z,45.24
2023-05-21T17:22:12.870Z,46.05
2023-05-21T17:24:41.449Z,46.18
2023-05-21T17:27:09.528Z,46.75
2023-05-21T17:29:37.780Z,47.10
2023-05-21T17:32:08.129Z,47.67
2023-05-21T17:34:37.146Z,47.07
2023-05-21T17:37:05.914Z,47.89
2023-05-21T17:39:33.750Z,48.05
2023-05-21T17:42:02.020Z,47.93
2023-05-21T17:44:29.865Z,48.02
2023-05-21T17:46:57.731Z,47.36
2023-05-21T17:49:27.017Z,47.65
2023-05-21T17:51:54.738Z,46.83
2023-05-21T17:54:22.603Z,48.44
2023-05-21T17:56:50.564Z,48.84
2023-05-21T17:59:18.540Z,47.73
2023-05-21T18:01:47.137Z,49.25
2023-05-21T18:04:15.085Z,48.88
2023-05-21T18:06:44.485Z,48.81
2023-05-21T18:09:14.340Z,49.46
2023-05-21T18:11:44.570Z,48.85
2023-05-21T18:14:12.629Z,48.96
2023-05-21T18:16:40.986Z,49.16
2023-05-21T18:19:08.985Z,49.41
2023-05-21T18:21:37.218Z,49.50
2023-05-21T18:24:07.958Z,49.56
2023-05-21T18:26:35.748Z,49.66
2023-05-21T18:29:03.957Z,49.60
2023-05-21T18:31:32.029Z,49.36
2023-05-21T18:33:59.914Z,49.24
2023-05-21T18:36:29.172Z,49.87
2023-05-21T18:38:57.619Z,50.80
2023-05-21T18:41:27.051Z,50.42
2023-05-21T18:43:54.907Z,50.21
2023-05-21T18:46:22.732Z,49.63
2023-05-21T18:48:51.087Z,49.79
2023-05-21T18:51:19.249Z,48.87
2023-05-21T18:53:47.180Z,48.86
2023-05-21T18:56:15.019Z,48.77
2023-05-21T18:58:44.179Z,47.94
2023-05-21T19:01:12.456Z,47.16
2023-05-21T19:03:41.352Z,47.49
2023-05-21T19:06:11.299Z,47.21
2023-05-21T19:08:40.445Z,47.36
2023-05-21T19:11:08.394Z,48.08
2023-05-21T19:13:36.270Z,48.31
2023-05-21T19:16:10.974Z,48.72
2023-05-21T19:18:42.044Z,48.68
2023-05-21T19:21:11.517Z,49.34
2023-05-21T19:23:51.944Z,49.25
2023-05-21T19:26:21.296Z,49.31
2023-05-21T19:28:52.892Z,49.30
2023-05-21T19:31:23.745Z,49.34
2023-05-21T19:33:51.820Z,50.25
2023-05-21T19:36:20.156Z,51.47
2023-05-21T19:38:49.177Z,52.43
2023-05-21T19:41:18.050Z,51.71
2023-05-21T19:43:46.732Z,52.09
2023-05-21T19:46:18.123Z,52.92
2023-05-21T19:48:49.856Z,54.65
2023-05-21T19:51:19.690Z,56.65
2023-05-21T19:53:47.530Z,58.16
2023-05-21T19:56:15.770Z,58.98
2023-05-21T19:58:46.996Z,59.67
2023-05-21T20:01:15.324Z,61.00
2023-05-21T20:03:45.357Z,62.34
2023-05-21T20:06:16.907Z,62.23
2023-05-21T20:08:44.776Z,63.13
2023-05-21T20:11:12.806Z,63.61
2023-05-21T20:13:42.056Z,63.67
2023-05-21T20:16:12.521Z,64.37
2023-05-21T20:18:41.624Z,64.08
2023-05-21T20:21:10.661Z,63.30
2023-05-21T20:23:39.842Z,62.02
2023-05-21T20:26:08.340Z,61.27
2023-05-21T20:28:37.451Z,61.14
2023-05-21T20:31:06.994Z,61.99
2023-05-21T20:33:39.369Z,60.30
2023-05-21T20:36:08.844Z,60.30
2023-05-21T20:38:38.111Z,61.16
2023-05-21T20:41:07.392Z,61.22
2023-05-21T20:43:37.227Z,62.40
2023-05-21T20:46:05.655Z,62.30
2023-05-21T20:48:33.779Z,61.04
2023-05-21T20:51:02.208Z,61.82
2023-05-21T20:53:30.126Z,62.46
2023-05-21T20:55:58.035Z,62.40
2023-05-21T20:58:27.360Z,64.36
2023-05-21T21:00:55.335Z,64.83
2023-05-21T21:03:23.595Z,64.45
2023-05-21T21:05:52.795Z,62.98
2023-05-21T21:08:21.097Z,63.31
2023-05-21T21:10:48.888Z,63.11
2023-05-21T21:13:16.813Z,63.03
2023-05-21T21:15:46.269Z,63.37
2023-05-21T21:18:14.360Z,64.82
2023-05-21T21:20:42.672Z,65.26
2023-05-21T21:23:10.531Z,64.63
2023-05-21T21:25:38.376Z,64.09
2023-05-21T21:28:06.256Z,64.10
2023-05-21T21:30:34.146Z,63.89
2023-05-21T21:33:03.775Z,65.09
2023-05-21T21:35:31.769Z,65.99
2023-05-21T21:37:59.604Z,66.81
2023-05-21T21:40:28.384Z,67.52
2023-05-21T21:42:56.735Z,67.28
2023-05-21T21:45:24.658Z,66.84
2023-05-21T21:47:52.592Z,65.95
2023-05-21T21:50:21.942Z,66.33
2023-05-21T21:52:49.920Z,66.76
2023-05-21T21:55:19.077Z,66.54
2023-05-21T21:57:46.890Z,69.07
2023-05-21T22:00:18.047Z,68.20
2023-05-21T22:02:47.493Z,67.79
2023-05-21T22:05:15.634Z,67.18
2023-05-21T22:07:47.068Z,67.12
2023-05-21T22:10:15.986Z,67.03
2023-05-21T22:12:45.959Z,67.19
2023-05-21T22:15:23.962Z,65.77
2023-05-21T22:17:53.454Z,66.61
2023-05-21T22:20:22.119Z,67.78
2023-05-21T22:22:53.065Z,66.40
2023-05-21T22:25:22.871Z,66.86
2023-05-21T22:27:51.638Z,66.72
2023-05-21T22:30:20.618Z,66.82
2023-05-21T22:32:49.436Z,65.80
2023-05-21T22:35:17.588Z,65.21
2023-05-21T22:37:45.510Z,66.50
2023-05-21T22:40:15.086Z,65.99
2023-05-21T22:42:43.045Z,66.25
2023-05-21T22:45:12.141Z,65.26
2023-05-21T22:47:40.443Z,66.06
2023-05-21T22:50:11.081Z,67.83
2023-05-21T22:52:39.168Z,68.01
2023-05-21T22:55:11.124Z,67.60
2023-05-21T22:57:40.593Z,67.67
2023-05-21T23:00:10.853Z,66.03
2023-05-21T23:02:38.966Z,65.09
2023-05-21T23:05:07.192Z,64.45
2023-05-21T23:07:35.041Z,62.82
2023-05-21T23:10:02.903Z,63.28
2023-05-21T23:12:30.844Z,63.87
2023-05-21T23:15:00.071Z,62.35
2023-05-21T23:17:27.932Z,61.77
2023-05-21T23:19:56.228Z,60.62
2023-05-21T23:22:24.490Z,61.25
2023-05-21T23:24:53.971Z,60.96
2023-05-21T23:27:21.782Z,61.89
2023-05-21T23:29:49.755Z,61.09
2023-05-21T23:32:19.278Z,61.04
2023-05-21T23:34:48.678Z,60.21
2023-05-21T23:37:16.593Z,60.38
2023-05-21T23:39:48.207Z,60.13
2023-05-21T23:42:16.852Z,60.08
2023-05-21T23:44:45.116Z,60.74
2023-05-21T23:47:12.973Z,60.14
2023-05-21T23:49:42.139Z,59.63
2023-05-21T23:52:10.015Z,59.78
2023-05-21T23:54:38.567Z,60.33
2023-05-21T23:57:07.189Z,60.38
2023-05-21T23:59:35.108Z,59.41
